Time;durP1;ratioP1;P1;durP2;ratioP2;P2;SDS_P1;SDS_P2;PMS_P1;PMS_P2;Temp;Humidity;BMP_temperature;BMP_pressure;BME280_temperature;BME280_humidity;BME280_pressure;Samples;Min_cycle;Max_cycle;Signal;HPM_P1;HPM_P2
2022/12/19 00:01:36;;;;;;;;;;;;;;;4.49;56.36;101844.81;5009263;28;114124;-67
2022/12/19 00:04:05;;;;;;;;;;;;;;;4.48;56.28;101828.22;5010630;28;124456;-67
2022/12/19 00:06:35;;;;;;;;;;;;;;;4.48;56.56;101825.59;5008099;28;125280;-67
2022/12/19 00:09:02;;;;;;;;;;;;;;;4.51;56.52;101852.69;5006867;28;114934;-67
2022/12/19 00:11:29;;;;;;;;;;;;;;;4.53;56.39;101824.69;5009319;28;115202;-67
2022/12/19 00:13:56;;;;;;;;;;;;;;;4.55;56.43;101838.69;5010508;28;124728;-66
2022/12/19 00:16:24;;;;;;;;;;;;;;;4.54;56.51;101840.44;5007756;28;124197;-68
2022/12/19 00:18:52;;;;;;;;;;;;;;;4.57;56.39;101850.03;5008350;28;112979;-67
2022/12/19 00:21:22;;;;;;;;;;;;;;;4.59;56.47;101843.88;5008916;28;114592;-67
2022/12/19 00:23:49;;;;;;;;;;;;;;;4.61;56.51;101834.25;5008840;28;124294;-68
2022/12/19 00:26:16;;;;;;;;;;;;;;;4.63;56.50;101834.25;5008150;28;124205;-67
2022/12/19 00:28:46;;;;;;;;;;;;;;;4.63;56.42;101829.00;5023763;28;113108;-67
2022/12/19 00:31:14;;;;;;;;;;;;;;;4.65;56.66;101829.88;5010956;28;114316;-67
2022/12/19 00:33:41;;;;;;;;;;;;;;;4.65;56.40;101807.16;5010007;28;124632;-67
2022/12/19 00:36:17;;;;;;;;;;;;;;;4.66;56.36;101808.00;4991449;28;123278;-67
2022/12/19 00:38:50;;;;;;;;;;;;;;;4.66;56.78;101813.25;5006882;28;114320;-67
2022/12/19 00:41:21;;;;;;;;;;;;;;;4.67;56.60;101773.00;5010106;28;114028;-67
2022/12/19 00:43:55;;;;;;;;;;;;;;;4.67;56.73;101794.00;5004860;28;124151;-68
2022/12/19 00:46:23;;;;;;;;;;;;;;;4.68;56.47;101759.03;5004632;28;123061;-68
2022/12/19 00:48:50;;;;;;;;;;;;;;;4.68;56.87;101773.00;4989640;28;114490;-67
2022/12/19 00:51:18;;;;;;;;;;;;;;;4.68;56.55;101759.88;5010779;28;113799;-67
2022/12/19 00:53:46;;;;;;;;;;;;;;;4.70;56.87;101751.16;5009892;28;124415;-67
2022/12/19 00:56:21;;;;;;;;;;;;;;;4.70;56.83;101720.53;5009975;28;124251;-68
2022/12/19 00:58:48;;;;;;;;;;;;;;;4.70;56.67;101731.03;5003290;28;115540;-67
2022/12/19 01:01:19;;;;;;;;;;;;;;;4.70;57.05;101731.03;5007128;28;114762;-67
2022/12/19 01:03:47;;;;;;;;;;;;;;;4.71;56.90;101722.28;5004479;28;124341;-68
2022/12/19 01:06:34;;;;;;;;;;;;;;;4.74;57.11;101737.13;5007541;28;123851;-67
2022/12/19 01:09:01;;;;;;;;;;;;;;;4.75;57.15;101734.50;5009835;28;114860;-67
2022/12/19 01:14:14;;;;;;;;;;;;;;;4.81;57.13;101721.31;5001645;28;124716;-67
2022/12/19 01:16:49;;;;;;;;;;;;;;;4.84;56.90;101728.28;5005210;28;123000;-68
2022/12/19 01:19:17;;;;;;;;;;;;;;;4.87;57.15;101739.66;5008531;28;114754;-67
2022/12/19 01:21:44;;;;;;;;;;;;;;;4.90;57.04;101728.28;4992315;28;113296;-67
2022/12/19 01:24:11;;;;;;;;;;;;;;;4.94;57.18;101734.38;5006069;28;123371;-67
2022/12/19 01:26:41;;;;;;;;;;;;;;;4.97;57.18;101734.31;5008315;28;124325;-67
2022/12/19 01:29:08;;;;;;;;;;;;;;;4.98;57.21;101734.31;5003166;28;114326;-67
2022/12/19 01:31:35;;;;;;;;;;;;;;;5.02;56.87;101737.81;5007516;28;112866;-67
2022/12/19 01:34:02;;;;;;;;;;;;;;;5.04;56.95;101725.53;5006319;28;124291;-67
2022/12/19 01:36:28;;;;;;;;;;;;;;;5.05;57.32;101707.16;4989023;28;123172;-67
2022/12/19 01:38:56;;;;;;;;;;;;;;;5.09;57.01;101708.00;5007828;28;113349;-68
2022/12/19 01:41:23;;;;;;;;;;;;;;;5.11;56.97;101706.22;5008744;28;114297;-68
2022/12/19 01:43:53;;;;;;;;;;;;;;;5.14;57.09;101695.72;5006424;28;123475;-68
2022/12/19 01:46:38;;;;;;;;;;;;;;;5.16;57.19;101688.69;5006420;28;122893;-67
2022/12/19 01:49:10;;;;;;;;;;;;;;;5.18;57.27;101697.41;5021761;28;114791;-67
2022/12/19 01:51:40;;;;;;;;;;;;;;;5.20;57.02;101706.16;5008003;28;113966;-68
2022/12/19 01:54:09;;;;;;;;;;;;;;;5.21;57.24;101697.38;5007118;28;124081;-67
2022/12/19 01:56:41;;;;;;;;;;;;;;;5.25;57.08;101698.22;5005048;28;124973;-67
2022/12/19 01:59:12;;;;;;;;;;;;;;;5.26;57.04;101690.31;5005149;28;113630;-67
2022/12/19 02:01:40;;;;;;;;;;;;;;;5.30;57.00;101690.31;5011978;27;113992;-67
2022/12/19 02:04:23;;;;;;;;;;;;;;;5.30;57.25;101685.06;5004965;28;123689;-67
2022/12/19 02:06:51;;;;;;;;;;;;;;;5.33;57.42;101666.63;5008218;28;123117;-68
2022/12/19 02:09:23;;;;;;;;;;;;;;;5.35;57.14;101677.97;5009261;28;117789;-67
2022/12/19 02:11:52;;;;;;;;;;;;;;;5.37;57.33;101681.47;4990401;28;114195;-67
2022/12/19 02:14:19;;;;;;;;;;;;;;;5.40;57.10;101670.94;5006759;28;123819;-67
2022/12/19 02:16:51;;;;;;;;;;;;;;;5.43;57.10;101670.91;5007972;28;124302;-67
2022/12/19 02:19:41;;;;;;;;;;;;;;;5.45;57.24;101664.75;5005675;28;113599;-68
2022/12/19 02:22:16;;;;;;;;;;;;;;;5.49;57.39;101644.56;5006179;28;114442;-68
2022/12/19 02:24:54;;;;;;;;;;;;;;;5.51;57.64;101652.44;4995904;28;126033;-67
2022/12/19 02:27:34;;;;;;;;;;;;;;;5.54;57.45;101653.28;4992138;28;122926;-68
2022/12/19 02:30:09;;;;;;;;;;;;;;;5.57;57.29;101632.19;5006094;28;114386;-67
2022/12/19 02:32:55;;;;;;;;;;;;;;;5.60;57.35;101642.69;5006933;28;112876;-67
2022/12/19 02:35:32;;;;;;;;;;;;;;;5.62;57.59;101643.53;5006697;28;123258;-67
2022/12/19 02:38:06;;;;;;;;;;;;;;;5.66;57.25;101645.22;5026323;28;123819;-67
2022/12/19 02:40:41;;;;;;;;;;;;;;;5.70;57.34;101637.31;5005113;28;115589;-68
2022/12/19 02:43:13;;;;;;;;;;;;;;;5.73;57.46;101653.94;5008751;28;116707;-67
2022/12/19 02:45:41;;;;;;;;;;;;;;;5.75;57.25;101635.53;4992189;28;123498;-67
2022/12/19 02:48:08;;;;;;;;;;;;;;;5.77;57.49;101633.75;5008372;28;124964;-67
2022/12/19 02:50:38;;;;;;;;;;;;;;;5.78;57.42;101627.56;5010477;28;114479;-67
2022/12/19 02:53:05;;;;;;;;;;;;;;;5.81;57.44;101627.56;5007387;28;113861;-67
2022/12/19 02:55:37;;;;;;;;;;;;;;;5.83;57.21;101623.13;4998364;28;124793;-67
2022/12/19 02:58:23;;;;;;;;;;;;;;;5.84;57.66;101631.00;5011177;28;124449;-68
2022/12/19 03:01:20;;;;;;;;;;;;;;;5.87;57.65;101609.06;5009655;28;114943;-67
2022/12/19 03:04:04;;;;;;;;;;;;;;;5.89;57.66;101616.94;4978659;28;113164;-67
2022/12/19 03:06:36;;;;;;;;;;;;;;;5.91;57.57;101605.50;5010699;28;123477;-67
2022/12/19 03:09:12;;;;;;;;;;;;;;;5.94;57.50;101605.47;5004449;28;124251;-68
2022/12/19 03:11:41;;;;;;;;;;;;;;;5.96;57.43;101587.94;5010437;28;113717;-68
2022/12/19 03:14:11;;;;;;;;;;;;;;;5.99;57.63;101589.66;5010455;28;114791;-68
2022/12/19 03:16:39;;;;;;;;;;;;;;;6.00;57.42;101596.66;5008020;28;123377;-67
2022/12/19 03:19:08;;;;;;;;;;;;;;;6.01;57.34;101596.66;5011518;28;123982;-68
2022/12/19 03:21:37;;;;;;;;;;;;;;;6.04;57.67;101598.34;5011606;28;114379;-67
2022/12/19 03:24:05;;;;;;;;;;;;;;;6.08;57.41;101601.81;5009486;28;113754;-68
2022/12/19 03:26:38;;;;;;;;;;;;;;;6.10;57.40;101589.50;5006151;28;123465;-68
2022/12/19 03:29:10;;;;;;;;;;;;;;;6.13;57.46;101594.72;5005238;28;124317;-68
2022/12/19 03:31:38;;;;;;;;;;;;;;;6.14;57.62;101606.97;5009527;28;115869;-68
2022/12/19 03:34:12;;;;;;;;;;;;;;;6.18;57.39;101598.16;5011591;28;114755;-68
2022/12/19 03:36:41;;;;;;;;;;;;;;;6.19;57.67;101599.88;5007569;28;123778;-68
2022/12/19 03:39:10;;;;;;;;;;;;;;;6.20;57.46;101591.13;5010420;28;123886;-68
2022/12/19 03:44:25;;;;;;;;;;;;;;;6.24;57.81;101588.41;5004496;28;113864;-67
2022/12/19 03:47:03;;;;;;;;;;;;;;;6.26;57.44;101580.50;5005410;28;123923;-68
2022/12/19 03:49:30;;;;;;;;;;;;;;;6.26;57.41;101583.13;5009103;28;124541;-68
2022/12/19 03:51:59;;;;;;;;;;;;;;;6.29;57.71;101579.56;5008614;28;113907;-68
2022/12/19 03:54:29;;;;;;;;;;;;;;;6.31;57.82;101573.41;5009498;28;113031;-68
2022/12/19 03:57:09;;;;;;;;;;;;;;;6.33;57.81;101582.16;5008261;28;124733;-68
2022/12/19 03:59:44;;;;;;;;;;;;;;;6.35;57.86;101569.84;5007039;28;124300;-68
2022/12/19 04:02:15;;;;;;;;;;;;;;;6.37;57.60;101568.06;5005819;28;114897;-68
2022/12/19 04:04:49;;;;;;;;;;;;;;;6.39;57.74;101566.25;5008217;28;114238;-68
2022/12/19 04:07:16;;;;;;;;;;;;;;;6.43;57.97;101565.31;5007877;28;124648;-68
2022/12/19 04:09:44;;;;;;;;;;;;;;;6.48;57.70;101567.00;5005598;28;124973;-69
2022/12/19 04:12:14;;;;;;;;;;;;;;;6.51;57.74;101564.31;4996232;28;113829;-68
2022/12/19 04:14:41;;;;;;;;;;;;;;;6.54;57.67;101559.88;5009547;28;113272;-68
2022/12/19 04:17:23;;;;;;;;;;;;;;;6.57;57.41;101558.94;5005765;28;123609;-68
2022/12/19 04:19:57;;;;;;;;;;;;;;;6.59;57.63;101554.53;5008489;28;123354;-68
2022/12/19 04:22:35;;;;;;;;;;;;;;;6.60;57.78;101553.66;4991958;28;114802;-68
2022/12/19 04:25:04;;;;;;;;;;;;;;;6.62;57.86;101546.59;5007911;28;115048;-68
2022/12/19 04:27:32;;;;;;;;;;;;;;;6.65;57.84;101546.56;5010634;28;125300;-68
2022/12/19 04:30:01;;;;;;;;;;;;;;;6.68;57.95;101553.50;5006344;28;124709;-68
2022/12/19 04:32:28;;;;;;;;;;;;;;;6.69;57.73;101550.84;5010480;28;114783;-68
2022/12/19 04:34:55;;;;;;;;;;;;;;;6.72;57.88;101540.25;5009800;28;113745;-68
2022/12/19 04:37:26;;;;;;;;;;;;;;;6.74;57.94;101541.13;5010635;28;124863;-68
2022/12/19 04:39:53;;;;;;;;;;;;;;;6.77;58.09;101541.03;5008194;28;124952;-68
2022/12/19 04:42:20;;;;;;;;;;;;;;;6.79;58.07;101541.88;5008349;28;114227;-68
2022/12/19 04:44:47;;;;;;;;;;;;;;;6.83;58.05;101535.66;5009715;28;113349;-68
2022/12/19 04:47:14;;;;;;;;;;;;;;;6.85;58.19;101532.16;5011454;28;124409;-68
2022/12/19 04:49:41;;;;;;;;;;;;;;;6.89;58.10;101531.19;5013208;28;124192;-68
2022/12/19 04:52:08;;;;;;;;;;;;;;;6.91;58.08;101527.66;5009510;28;114115;-68
2022/12/19 04:54:35;;;;;;;;;;;;;;;6.95;58.09;101528.44;5004961;28;114583;-68
2022/12/19 04:57:02;;;;;;;;;;;;;;;6.98;57.95;101520.50;5006823;28;125075;-68
2022/12/19 04:59:28;;;;;;;;;;;;;;;7.02;58.12;101527.44;5007016;28;124780;-68
2022/12/19 05:01:55;;;;;;;;;;;;;;;7.05;58.25;101530.00;5010513;28;115012;-68
2022/12/19 05:04:23;;;;;;;;;;;;;;;7.09;57.99;101526.41;5009028;28;113662;-68
2022/12/19 05:06:50;;;;;;;;;;;;;;;7.13;58.36;101522.81;5008607;28;124212;-68
2022/12/19 05:09:17;;;;;;;;;;;;;;;7.17;57.97;101535.03;5010684;28;124408;-68
2022/12/19 05:11:44;;;;;;;;;;;;;;;7.21;58.02;101526.19;5009974;28;115011;-68
2022/12/19 05:14:11;;;;;;;;;;;;;;;7.26;58.29;101527.84;5010550;28;114725;-68
2022/12/19 05:16:38;;;;;;;;;;;;;;;7.31;58.05;101525.97;5007447;28;125058;-69
2022/12/19 05:19:05;;;;;;;;;;;;;;;7.36;58.27;101534.66;5008593;28;124566;-68
2022/12/19 05:21:31;;;;;;;;;;;;;;;7.41;58.00;101528.38;5009301;28;114802;-68
2022/12/19 05:23:58;;;;;;;;;;;;;;;7.46;58.20;101525.69;5010351;28;114203;-68
2022/12/19 05:26:25;;;;;;;;;;;;;;;7.51;58.38;101523.78;5016829;28;124831;-69
2022/12/19 05:28:52;;;;;;;;;;;;;;;7.57;58.14;101521.03;5009431;28;123744;-68
2022/12/19 05:31:19;;;;;;;;;;;;;;;7.63;58.42;101527.94;5009962;28;115111;-68
2022/12/19 05:33:47;;;;;;;;;;;;;;;7.69;58.44;101521.69;5005072;28;113889;-68
2022/12/19 05:36:15;;;;;;;;;;;;;;;7.75;58.16;101517.13;5009254;28;124137;-68
2022/12/19 05:38:42;;;;;;;;;;;;;;;7.80;58.46;101520.53;5007865;28;125685;-68
2022/12/19 05:41:11;;;;;;;;;;;;;;;7.85;58.04;101517.78;5006451;28;114586;-68
2022/12/19 05:43:44;;;;;;;;;;;;;;;7.91;58.03;101522.94;5002103;28;112709;-68
2022/12/19 05:46:11;;;;;;;;;;;;;;;7.97;58.20;101512.22;5008777;28;124250;-69
2022/12/19 05:48:38;;;;;;;;;;;;;;;8.03;58.32;101499.81;5008697;28;124425;-68
2022/12/19 05:51:05;;;;;;;;;;;;;;;8.08;58.50;101508.44;5007871;28;114557;-68
2022/12/19 05:53:34;;;;;;;;;;;;;;;8.13;58.21;101501.31;5007435;28;114931;-68
2022/12/19 05:56:02;;;;;;;;;;;;;;;8.17;58.41;101510.88;5005939;28;124268;-68
2022/12/19 05:58:29;;;;;;;;;;;;;;;8.23;58.28;101502.81;4993654;28;123678;-68
2022/12/19 06:01:22;;;;;;;;;;;;;;;8.28;58.25;101495.63;5004706;28;115615;-68
2022/12/19 06:03:49;;;;;;;;;;;;;;;8.33;58.29;101506.97;5004348;28;114682;-69
2022/12/19 06:06:18;;;;;;;;;;;;;;;8.38;58.16;101502.44;5003074;28;125163;-68
2022/12/19 06:08:45;;;;;;;;;;;;;;;8.45;58.53;101502.31;5005595;28;124013;-69
2022/12/19 06:11:13;;;;;;;;;;;;;;;8.51;58.48;101502.16;5005823;28;113582;-69
2022/12/19 06:13:40;;;;;;;;;;;;;;;8.56;58.42;101479.13;5008349;28;113976;-68
2022/12/19 06:16:14;;;;;;;;;;;;;;;8.64;58.17;101508.84;5005541;28;124698;-69
2022/12/19 06:18:42;;;;;;;;;;;;;;;8.69;58.34;101501.66;5004722;28;123987;-69
2022/12/19 06:21:13;;;;;;;;;;;;;;;8.73;58.57;101498.03;5004141;28;115226;-68
2022/12/19 06:23:40;;;;;;;;;;;;;;;8.79;58.35;101491.72;5005897;28;113856;-68
2022/12/19 06:26:07;;;;;;;;;;;;;;;8.84;58.39;101512.75;5002194;28;124407;-68
2022/12/19 06:28:38;;;;;;;;;;;;;;;8.90;58.36;101491.44;4988936;28;124429;-68
2022/12/19 06:31:05;;;;;;;;;;;;;;;8.94;58.39;101493.06;5008282;28;114425;-68
2022/12/19 06:33:33;;;;;;;;;;;;;;;9.00;58.55;101490.25;5007908;28;113648;-68
2022/12/19 06:36:02;;;;;;;;;;;;;;;9.06;58.50;101498.03;5004635;28;124098;-68
2022/12/19 06:38:29;;;;;;;;;;;;;;;9.11;58.60;101498.75;5003070;28;125152;-68
2022/12/19 06:43:42;;;;;;;;;;;;;;;9.24;58.50;101503.69;5005863;28;113675;-68
2022/12/19 06:46:09;;;;;;;;;;;;;;;9.30;58.53;101498.22;5004163;28;125483;-68
2022/12/19 06:48:36;;;;;;;;;;;;;;;9.37;58.48;101502.41;5007153;28;124151;-68
2022/12/19 06:51:03;;;;;;;;;;;;;;;9.42;58.61;101505.81;5007871;28;115675;-68
2022/12/19 06:53:30;;;;;;;;;;;;;;;9.49;58.70;101510.00;5003597;28;115672;-68
2022/12/19 06:55:58;;;;;;;;;;;;;;;9.55;58.60;101509.81;5003226;28;124068;-68
2022/12/19 06:58:25;;;;;;;;;;;;;;;9.62;58.54;101504.31;5006143;28;124070;-68
2022/12/19 07:00:52;;;;;;;;;;;;;;;9.68;58.42;101504.13;5006041;28;114318;-70
2022/12/19 07:03:23;;;;;;;;;;;;;;;9.73;58.68;101502.22;5008903;28;114437;-70
2022/12/19 07:05:50;;;;;;;;;;;;;;;9.79;58.56;101514.38;5007660;28;124084;-70
2022/12/19 07:08:16;;;;;;;;;;;;;;;9.85;58.57;101515.09;5008116;28;124239;-70
2022/12/19 07:10:43;;;;;;;;;;;;;;;9.89;58.69;101508.78;5005862;28;114644;-70
2022/12/19 07:13:10;;;;;;;;;;;;;;;9.97;58.59;101515.63;5007220;28;113881;-70
2022/12/19 07:15:38;;;;;;;;;;;;;;;10.02;58.52;101514.56;4998732;28;123382;-70
2022/12/19 07:18:06;;;;;;;;;;;;;;;10.07;58.70;101532.91;5007159;28;124448;-70
2022/12/19 07:20:34;;;;;;;;;;;;;;;10.12;58.68;101515.97;5010524;28;114541;-70
2022/12/19 07:23:02;;;;;;;;;;;;;;;10.16;58.58;101519.38;5011646;28;113862;-70
2022/12/19 07:25:30;;;;;;;;;;;;;;;10.20;58.56;101521.00;5009930;28;123360;-70
2022/12/19 07:27:57;;;;;;;;;;;;;;;10.24;58.58;101525.28;5007271;28;125050;-70
2022/12/19 07:30:24;;;;;;;;;;;;;;;10.28;58.52;101519.00;5009683;28;115608;-70
2022/12/19 07:32:51;;;;;;;;;;;;;;;10.32;58.62;101517.13;5011551;28;113685;-70
2022/12/19 07:35:18;;;;;;;;;;;;;;;10.33;58.56;101519.72;5010285;28;125792;-68
2022/12/19 07:37:49;;;;;;;;;;;;;;;10.37;58.58;101524.94;5009559;28;124958;-68
2022/12/19 07:40:17;;;;;;;;;;;;;;;10.40;58.56;101522.19;5009702;28;115289;-68
2022/12/19 07:42:44;;;;;;;;;;;;;;;10.43;58.67;101519.41;5011048;28;114784;-68
2022/12/19 07:45:11;;;;;;;;;;;;;;;10.47;58.47;101526.34;5005670;28;125439;-68
2022/12/19 07:47:38;;;;;;;;;;;;;;;10.48;58.57;101533.38;5005530;28;124751;-68
2022/12/19 07:50:05;;;;;;;;;;;;;;;10.50;58.69;101531.53;5011274;28;114270;-68
2022/12/19 07:52:32;;;;;;;;;;;;;;;10.53;58.72;101520.88;5004470;28;113976;-68
2022/12/19 07:54:59;;;;;;;;;;;;;;;10.54;58.45;101530.53;5006790;28;124556;-68
2022/12/19 07:57:26;;;;;;;;;;;;;;;10.56;58.63;101523.38;5005730;28;124651;-68
2022/12/19 07:59:52;;;;;;;;;;;;;;;10.59;58.51;101525.94;5006945;28;114138;-67
2022/12/19 08:02:20;;;;;;;;;;;;;;;10.60;58.54;101532.94;5007461;28;113425;-68
2022/12/19 08:04:47;;;;;;;;;;;;;;;10.63;58.68;101532.84;5007759;28;126342;-69
2022/12/19 08:07:14;;;;;;;;;;;;;;;10.64;58.63;101529.31;5005249;28;125183;-69
2022/12/19 08:09:40;;;;;;;;;;;;;;;10.66;58.49;101532.75;5009999;28;114414;-69
2022/12/19 08:12:09;;;;;;;;;;;;;;;10.66;58.70;101524.81;5011127;28;113513;-69
2022/12/19 08:14:36;;;;;;;;;;;;;;;10.69;58.52;101537.94;5007386;28;123791;-69
2022/12/19 08:17:03;;;;;;;;;;;;;;;10.69;58.65;101543.22;5007688;28;124677;-72
2022/12/19 08:19:47;;;;;;;;;;;;;;;10.70;58.66;101539.69;5006771;28;115118;-69
2022/12/19 08:22:14;;;;;;;;;;;;;;;10.72;58.59;101537.00;5011155;28;113577;-69
2022/12/19 08:24:41;;;;;;;;;;;;;;;10.74;58.55;101544.84;5007439;28;124257;-69
2022/12/19 08:27:08;;;;;;;;;;;;;;;10.75;58.60;101541.31;5019000;28;123659;-69
2022/12/19 08:29:35;;;;;;;;;;;;;;;10.77;58.78;101555.34;5008786;28;115285;-69
2022/12/19 08:32:02;;;;;;;;;;;;;;;10.77;58.47;101544.75;5005700;28;114067;-70
2022/12/19 08:34:29;;;;;;;;;;;;;;;10.79;58.62;101548.22;4998777;28;124608;-69
2022/12/19 08:36:56;;;;;;;;;;;;;;;10.80;58.55;101549.97;5007559;28;124014;-69
2022/12/19 08:39:22;;;;;;;;;;;;;;;10.81;58.56;101541.09;5008976;28;114874;-69
2022/12/19 08:41:50;;;;;;;;;;;;;;;10.82;58.58;101542.81;5006517;28;114307;-68
2022/12/19 08:44:17;;;;;;;;;;;;;;;10.83;58.71;101545.44;5007407;28;126836;-69
2022/12/19 08:46:44;;;;;;;;;;;;;;;10.85;58.64;101537.41;5007827;28;124018;-70
2022/12/19 08:49:17;;;;;;;;;;;;;;;10.87;58.67;101530.28;5007954;28;114112;-70
2022/12/19 08:51:45;;;;;;;;;;;;;;;10.87;58.61;101532.94;5008721;28;113926;-70
2022/12/19 08:54:11;;;;;;;;;;;;;;;10.89;58.78;101539.06;5004827;28;123926;-70
2022/12/19 08:56:38;;;;;;;;;;;;;;;10.90;58.60;101540.75;5008025;28;123638;-70
2022/12/19 08:59:14;;;;;;;;;;;;;;;10.93;58.56;101545.09;5006503;28;109030;-70
2022/12/19 09:01:56;;;;;;;;;;;;;;;10.93;58.68;101548.63;5006687;28;114168;-70
2022/12/19 09:04:23;;;;;;;;;;;;;;;10.94;58.71;101547.69;5008710;28;124260;-70
2022/12/19 09:07:10;;;;;;;;;;;;;;;10.95;58.73;101549.44;4993410;28;123380;-70
2022/12/19 09:09:41;;;;;;;;;;;;;;;10.96;58.86;101545.84;5003625;28;113990;-70
2022/12/19 09:12:07;;;;;;;;;;;;;;;10.97;58.58;101546.72;4988957;28;112932;-71
2022/12/19 09:14:34;;;;;;;;;;;;;;;10.99;58.83;101551.03;5008008;28;124412;-70
2022/12/19 09:17:01;;;;;;;;;;;;;;;11.01;58.84;101543.91;5008653;28;123549;-71
2022/12/19 09:19:30;;;;;;;;;;;;;;;11.03;58.86;101551.81;5004813;28;115587;-70
2022/12/19 09:21:58;;;;;;;;;;;;;;;11.04;58.75;101554.41;5006429;28;114057;-70
2022/12/19 09:24:25;;;;;;;;;;;;;;;11.06;58.86;101552.56;5003916;28;124283;-70
2022/12/19 09:27:16;;;;;;;;;;;;;;;11.08;58.73;101556.03;5016064;28;124273;-72
2022/12/19 09:29:58;;;;;;;;;;;;;;;11.09;58.87;101560.41;4965311;28;113912;-71
2022/12/19 09:32:29;;;;;;;;;;;;;;;11.12;58.84;101555.91;5016230;28;112796;-70
2022/12/19 09:35:01;;;;;;;;;;;;;;;11.14;58.79;101564.69;4991740;28;125498;-72
2022/12/19 09:37:33;;;;;;;;;;;;;;;11.14;58.95;101559.38;4991732;28;123845;-70
2022/12/19 09:40:00;;;;;;;;;;;;;;;11.16;58.88;101565.50;5009909;28;114158;-70
2022/12/19 09:42:27;;;;;;;;;;;;;;;11.18;58.82;101571.59;5010237;28;112973;-70
2022/12/19 09:45:02;;;;;;;;;;;;;;;11.19;58.79;101562.72;5007662;28;123314;-70
2022/12/19 09:47:32;;;;;;;;;;;;;;;11.21;58.98;101566.19;5005093;28;123904;-70
2022/12/19 09:50:00;;;;;;;;;;;;;;;11.23;58.96;101559.06;5008917;28;115127;-70
2022/12/19 09:52:27;;;;;;;;;;;;;;;11.26;58.83;101574.84;5008107;28;114111;-70
2022/12/19 09:55:05;;;;;;;;;;;;;;;11.27;58.96;101561.53;5007057;28;124426;-70
2022/12/19 09:57:38;;;;;;;;;;;;;;;11.29;59.06;101564.13;4986061;28;123351;-71
2022/12/19 10:00:13;;;;;;;;;;;;;;;11.32;59.01;101563.13;5007109;28;114407;-70
2022/12/19 10:02:43;;;;;;;;;;;;;;;11.34;58.88;101562.19;5005293;28;113993;-71
2022/12/19 10:05:29;;;;;;;;;;;;;;;11.37;58.99;101562.03;5009339;28;125769;-70
2022/12/19 10:08:30;;;;;;;;;;;;;;;11.40;58.94;101561.94;5005659;28;124722;-70
2022/12/19 10:11:09;;;;;;;;;;;;;;;11.43;59.00;101567.16;5008623;28;115042;-70
2022/12/19 10:14:14;;;;;;;;;;;;;;;11.45;59.08;101575.91;5008278;28;114456;-70
2022/12/19 10:17:20;;;;;;;;;;;;;;;11.47;59.04;101568.75;4998769;28;123844;-70
2022/12/19 10:19:56;;;;;;;;;;;;;;;11.52;59.06;101575.66;4951001;28;124509;-70
2022/12/19 10:22:25;;;;;;;;;;;;;;;11.54;59.04;101573.81;4968795;28;116259;-70
2022/12/19 10:25:02;;;;;;;;;;;;;;;11.57;59.04;101579.03;4981883;28;113451;-70
2022/12/19 10:27:45;;;;;;;;;;;;;;;11.60;59.05;101573.59;5004979;28;123722;-70
2022/12/19 10:30:28;;;;;;;;;;;;;;;11.63;59.05;101573.47;5002987;28;124028;-70
2022/12/19 10:32:58;;;;;;;;;;;;;;;11.66;59.10;101568.06;5007461;28;113494;-70
2022/12/19 10:35:33;;;;;;;;;;;;;;;11.68;59.07;101561.78;5001582;28;112737;-70
2022/12/19 10:38:04;;;;;;;;;;;;;;;11.71;58.98;101560.78;5007447;28;124142;-70
2022/12/19 10:40:33;;;;;;;;;;;;;;;11.75;59.10;101567.69;4999232;28;124737;-70
2022/12/19 10:43:21;;;;;;;;;;;;;;;11.76;59.02;101561.47;5007437;28;114262;-70
2022/12/19 10:46:02;;;;;;;;;;;;;;;11.80;58.90;101560.44;5008805;28;113796;-70
2022/12/19 10:48:32;;;;;;;;;;;;;;;11.82;59.17;101555.91;5010783;28;123724;-71
2022/12/19 10:51:00;;;;;;;;;;;;;;;11.84;58.96;101555.88;5007255;28;123541;-72
2022/12/19 10:53:51;;;;;;;;;;;;;;;11.87;59.01;101567.22;4979288;28;114308;-71
2022/12/19 10:56:24;;;;;;;;;;;;;;;11.88;58.82;101553.06;5010363;28;113490;-71
2022/12/19 10:58:56;;;;;;;;;;;;;;;11.89;59.13;101559.22;5010467;28;125246;-71
2022/12/19 11:01:25;;;;;;;;;;;;;;;11.92;58.98;101558.25;4994009;28;124383;-71
2022/12/19 11:04:12;;;;;;;;;;;;;;;11.93;59.03;101550.25;4994808;28;115656;-71
2022/12/19 11:06:50;;;;;;;;;;;;;;;11.95;59.02;101564.31;5002737;28;114600;-71
2022/12/19 11:09:17;;;;;;;;;;;;;;;11.98;59.08;101558.00;5013296;28;124349;-71
2022/12/19 11:11:48;;;;;;;;;;;;;;;11.99;58.91;101552.63;5006641;28;124180;-71
2022/12/19 11:14:36;;;;;;;;;;;;;;;12.02;58.99;101554.34;5013386;28;113910;-71
2022/12/19 11:17:32;;;;;;;;;;;;;;;12.03;59.01;101545.41;5016936;28;113807;-71
2022/12/19 11:20:20;;;;;;;;;;;;;;;12.04;58.85;101552.47;5001820;28;124129;-71
2022/12/19 11:23:12;;;;;;;;;;;;;;;12.06;59.11;101545.31;5008935;28;123706;-71
2022/12/19 11:26:01;;;;;;;;;;;;;;;12.08;58.99;101527.53;5010425;28;115238;-71
2022/12/19 11:28:48;;;;;;;;;;;;;;;12.09;59.10;101542.50;5012039;28;114161;-70
2022/12/19 11:31:35;;;;;;;;;;;;;;;12.11;59.14;101540.69;5006743;28;123942;-69
2022/12/19 11:34:23;;;;;;;;;;;;;;;12.13;59.05;101522.91;5011681;28;124224;-70
2022/12/19 11:37:02;;;;;;;;;;;;;;;12.15;59.07;101529.00;5011603;28;114399;-70
2022/12/19 11:39:43;;;;;;;;;;;;;;;12.17;59.11;101527.16;4993285;28;114629;-70
2022/12/19 11:42:10;;;;;;;;;;;;;;;12.17;59.01;101521.84;4996097;28;124403;-70
2022/12/19 11:44:36;;;;;;;;;;;;;;;12.19;59.10;101524.44;5008322;28;124719;-70
2022/12/19 11:47:19;;;;;;;;;;;;;;;12.20;59.08;101516.38;4997861;28;114950;-70
2022/12/19 11:50:06;;;;;;;;;;;;;;;12.21;58.99;101515.47;5010672;28;114018;-69
2022/12/19 11:52:41;;;;;;;;;;;;;;;12.23;59.08;101515.41;4988481;28;125708;-70
2022/12/19 11:55:47;;;;;;;;;;;;;;;12.24;59.06;101502.09;5010190;28;123964;-69
2022/12/19 11:58:13;;;;;;;;;;;;;;;12.26;59.04;101510.84;5002652;28;116242;-69
2022/12/19 12:01:03;;;;;;;;;;;;;;;12.30;59.09;101506.28;5009080;28;114253;-69
2022/12/19 12:03:42;;;;;;;;;;;;;;;12.32;59.12;101503.53;5001792;28;124067;-69
2022/12/19 12:06:31;;;;;;;;;;;;;;;12.34;59.20;101496.34;5006434;28;124341;-69
2022/12/19 12:09:15;;;;;;;;;;;;;;;12.36;59.11;101494.53;5007885;28;115222;-69
2022/12/19 12:12:20;;;;;;;;;;;;;;;12.39;59.13;101489.91;5005746;28;115195;-69
2022/12/19 12:15:27;;;;;;;;;;;;;;;12.44;59.16;101492.41;5003960;28;124341;-69
2022/12/19 12:18:34;;;;;;;;;;;;;;;12.48;59.15;101499.31;5008685;28;123990;-70
2022/12/19 12:21:25;;;;;;;;;;;;;;;12.51;59.22;101483.25;5007186;28;114290;-69
2022/12/19 12:24:20;;;;;;;;;;;;;;;12.54;59.07;101491.06;5004566;28;113456;-69
2022/12/19 12:27:26;;;;;;;;;;;;;;;12.58;59.12;101490.03;4997066;28;124173;-69
2022/12/19 12:30:17;;;;;;;;;;;;;;;12.62;59.16;101494.28;5007338;28;123885;-69
2022/12/19 12:33:12;;;;;;;;;;;;;;;12.65;59.16;101479.97;5011275;28;114543;-69
2022/12/19 12:36:06;;;;;;;;;;;;;;;12.70;59.21;101482.47;5009015;28;113186;-69
2022/12/19 12:39:07;;;;;;;;;;;;;;;12.73;59.12;101471.66;5000627;28;124852;-69
2022/12/19 12:44:31;;;;;;;;;;;;;;;12.79;59.23;101461.66;5006435;28;114782;-70
2022/12/19 12:47:19;;;;;;;;;;;;;;;12.81;59.07;101462.44;5003036;28;114077;-70
2022/12/19 12:49:54;;;;;;;;;;;;;;;12.86;59.16;101472.84;5010570;28;124134;-70
2022/12/19 12:52:39;;;;;;;;;;;;;;;12.88;59.03;101465.66;5007429;28;124172;-70
2022/12/19 12:55:24;;;;;;;;;;;;;;;12.91;59.07;101470.84;5010511;28;116215;-70
2022/12/19 12:57:51;;;;;;;;;;;;;;;12.93;59.07;101473.44;4996777;28;114670;-70
2022/12/19 13:00:21;;;;;;;;;;;;;;;12.96;59.07;101474.19;5009241;28;124085;-70
2022/12/19 13:02:54;;;;;;;;;;;;;;;12.99;58.93;101478.50;4995990;28;124610;-69
2022/12/19 13:05:21;;;;;;;;;;;;;;;13.00;59.17;101470.44;4998473;28;114764;-70
2022/12/19 13:07:52;;;;;;;;;;;;;;;13.03;59.10;101472.97;5008730;28;113208;-72
2022/12/19 13:10:24;;;;;;;;;;;;;;;13.07;59.01;101471.00;5007855;28;124045;-69
2022/12/19 13:13:00;;;;;;;;;;;;;;;13.09;59.00;101471.84;4994516;27;124141;-74